sensor_id;sensor_type;location;lat;lon;timestamp;pressure;altitude;pressure_sealevel;temperature;humidity
67931;BME280;63902;52.000;5.954;2023-02-28T00:00:28;102743.16;;;-0.34;81.37
67931;BME280;63902;52.000;5.954;2023-02-28T00:01:29;102738.91;;;-0.32;81.46
67931;BME280;63902;52.000;5.954;2023-02-28T00:02:29;102740.69;;;-0.31;81.40
67931;BME280;63902;52.000;5.954;2023-02-28T00:03:29;102739.66;;;-0.36;81.31
67931;BME280;63902;52.000;5.954;2023-02-28T00:04:30;102742.47;;;-0.30;81.39
67931;BME280;63902;52.000;5.954;2023-02-28T00:05:30;102737.25;;;-0.30;81.73
67931;BME280;63902;52.000;5.954;2023-02-28T00:06:33;102734.75;;;-0.27;81.53
67931;BME280;63902;52.000;5.954;2023-02-28T00:07:33;102738.28;;;-0.25;81.74
67931;BME280;63902;52.000;5.954;2023-02-28T00:08:34;102734.81;;;-0.25;81.61
67931;BME280;63902;52.000;5.954;2023-02-28T00:09:34;102732.13;;;-0.27;81.17
67931;BME280;63902;52.000;5.954;2023-02-28T00:10:35;102727.88;;;-0.25;81.66
67931;BME280;63902;52.000;5.954;2023-02-28T00:11:36;102726.06;;;-0.26;81.19
67931;BME280;63902;52.000;5.954;2023-02-28T00:12:37;102740.16;;;-0.20;81.33
67931;BME280;63902;52.000;5.954;2023-02-28T00:13:40;102730.56;;;-0.21;81.09
67931;BME280;63902;52.000;5.954;2023-02-28T00:14:41;102729.81;;;-0.17;81.40
67931;BME280;63902;52.000;5.954;2023-02-28T00:15:41;102734.31;;;-0.13;81.13
67931;BME280;63902;52.000;5.954;2023-02-28T00:16:42;102732.59;;;-0.13;81.38
67931;BME280;63902;52.000;5.954;2023-02-28T00:17:43;102726.44;;;-0.15;81.32
67931;BME280;63902;52.000;5.954;2023-02-28T00:18:43;102738.00;;;-0.07;81.19
67931;BME280;63902;52.000;5.954;2023-02-28T00:19:44;102713.97;;;-0.24;80.88
67931;BME280;63902;52.000;5.954;2023-02-28T00:20:45;102738.88;;;-0.08;81.11
67931;BME280;63902;52.000;5.954;2023-02-28T00:21:46;102737.97;;;-0.08;80.96
67931;BME280;63902;52.000;5.954;2023-02-28T00:22:49;102734.53;;;-0.07;81.35
67931;BME280;63902;52.000;5.954;2023-02-28T00:23:50;102733.75;;;-0.05;81.25
67931;BME280;63902;52.000;5.954;2023-02-28T00:24:50;102740.78;;;-0.02;81.16
67931;BME280;63902;52.000;5.954;2023-02-28T00:25:51;102711.66;;;-0.14;81.25
67931;BME280;63902;52.000;5.954;2023-02-28T00:26:52;102728.63;;;-0.02;81.09
67931;BME280;63902;52.000;5.954;2023-02-28T00:27:52;102735.59;;;-0.01;81.51
67931;BME280;63902;52.000;5.954;2023-02-28T00:28:53;102734.72;;;-0.01;81.11
67931;BME280;63902;52.000;5.954;2023-02-28T00:29:53;102734.69;;;-0.03;81.46
67931;BME280;63902;52.000;5.954;2023-02-28T00:30:54;102732.97;;;-0.02;81.60
67931;BME280;63902;52.000;5.954;2023-02-28T00:31:54;102736.44;;;-0.02;81.38
67931;BME280;63902;52.000;5.954;2023-02-28T00:32:54;102724.09;;;-0.07;81.46
67931;BME280;63902;52.000;5.954;2023-02-28T00:33:55;102724.25;;;-0.03;81.21
67931;BME280;63902;52.000;5.954;2023-02-28T00:34:55;102733.91;;;0.00;81.40
67931;BME280;63902;52.000;5.954;2023-02-28T00:36:04;102740.03;;;0.02;81.65
67931;BME280;63902;52.000;5.954;2023-02-28T00:37:07;102737.44;;;0.02;81.64
67931;BME280;63902;52.000;5.954;2023-02-28T00:38:09;102731.34;;;0.02;81.07
67931;BME280;63902;52.000;5.954;2023-02-28T00:39:09;102743.69;;;0.07;81.68
67931;BME280;63902;52.000;5.954;2023-02-28T00:40:11;102733.06;;;0.01;81.16
67931;BME280;63902;52.000;5.954;2023-02-28T00:41:11;102737.69;;;0.10;81.24
67931;BME280;63902;52.000;5.954;2023-02-28T00:42:11;102729.66;;;0.04;81.01
67931;BME280;63902;52.000;5.954;2023-02-28T00:43:12;102737.69;;;0.10;81.07
67931;BME280;63902;52.000;5.954;2023-02-28T00:44:12;102712.03;;;-0.04;80.92
67931;BME280;63902;52.000;5.954;2023-02-28T00:45:13;102735.16;;;0.11;81.03
67931;BME280;63902;52.000;5.954;2023-02-28T00:46:13;102744.66;;;0.11;81.51
67931;BME280;63902;52.000;5.954;2023-02-28T00:47:14;102735.97;;;0.10;81.44
67931;BME280;63902;52.000;5.954;2023-02-28T00:48:14;102732.56;;;0.13;81.27
67931;BME280;63902;52.000;5.954;2023-02-28T00:49:15;102715.66;;;0.00;81.33
67931;BME280;63902;52.000;5.954;2023-02-28T00:50:16;102715.75;;;0.03;81.24
67931;BME280;63902;52.000;5.954;2023-02-28T00:51:16;102708.53;;;-0.04;81.39
67931;BME280;63902;52.000;5.954;2023-02-28T00:52:18;102733.34;;;0.10;81.06
67931;BME280;63902;52.000;5.954;2023-02-28T00:53:19;102735.16;;;0.11;81.24
67931;BME280;63902;52.000;5.954;2023-02-28T00:54:19;102731.63;;;0.11;81.47
67931;BME280;63902;52.000;5.954;2023-02-28T00:55:20;102737.88;;;0.16;81.54
67931;BME280;63902;52.000;5.954;2023-02-28T00:56:21;102738.75;;;0.16;81.15
67931;BME280;63902;52.000;5.954;2023-02-28T00:57:21;102737.06;;;0.17;81.53
67931;BME280;63902;52.000;5.954;2023-02-28T00:58:21;102730.13;;;0.17;81.39
67931;BME280;63902;52.000;5.954;2023-02-28T00:59:22;102738.84;;;0.18;81.31
67931;BME280;63902;52.000;5.954;2023-02-28T01:00:22;102731.84;;;0.17;81.34
67931;BME280;63902;52.000;5.954;2023-02-28T01:01:23;102735.34;;;0.17;81.57
67931;BME280;63902;52.000;5.954;2023-02-28T01:02:23;102735.34;;;0.17;81.47
67931;BME280;63902;52.000;5.954;2023-02-28T01:03:24;102737.09;;;0.18;81.27
67931;BME280;63902;52.000;5.954;2023-02-28T01:04:24;102736.25;;;0.19;81.57
67931;BME280;63902;52.000;5.954;2023-02-28T01:05:25;102735.44;;;0.20;81.60
67931;BME280;63902;52.000;5.954;2023-02-28T01:06:25;102738.94;;;0.21;81.38
67931;BME280;63902;52.000;5.954;2023-02-28T01:07:27;102722.28;;;0.17;81.79
67931;BME280;63902;52.000;5.954;2023-02-28T01:08:28;102733.78;;;0.22;81.72
67931;BME280;63902;52.000;5.954;2023-02-28T01:09:29;102734.69;;;0.25;81.53
67931;BME280;63902;52.000;5.954;2023-02-28T01:10:30;102717.88;;;0.16;81.60
67931;BME280;63902;52.000;5.954;2023-02-28T01:11:30;102726.06;;;0.27;81.27
67931;BME280;63902;52.000;5.954;2023-02-28T01:12:31;102729.63;;;0.29;81.48
67931;BME280;63902;52.000;5.954;2023-02-28T01:13:31;102733.97;;;0.29;81.16
67931;BME280;63902;52.000;5.954;2023-02-28T01:14:32;102709.97;;;0.13;81.33
67931;BME280;63902;52.000;5.954;2023-02-28T01:15:32;102734.78;;;0.28;81.24
67931;BME280;63902;52.000;5.954;2023-02-28T01:16:33;102725.97;;;0.24;81.28
67931;BME280;63902;52.000;5.954;2023-02-28T01:17:33;102720.81;;;0.26;81.48
67931;BME280;63902;52.000;5.954;2023-02-28T01:18:34;102724.34;;;0.28;81.77
67931;BME280;63902;52.000;5.954;2023-02-28T01:19:35;102719.09;;;0.26;81.52
67931;BME280;63902;52.000;5.954;2023-02-28T01:20:36;102733.88;;;0.26;81.80
67931;BME280;63902;52.000;5.954;2023-02-28T01:21:36;102742.59;;;0.28;81.60
67931;BME280;63902;52.000;5.954;2023-02-28T01:22:38;102745.19;;;0.26;81.37
67931;BME280;63902;52.000;5.954;2023-02-28T01:23:39;102748.69;;;0.27;81.60
67931;BME280;63902;52.000;5.954;2023-02-28T01:24:40;102745.19;;;0.26;81.66
67931;BME280;63902;52.000;5.954;2023-02-28T01:25:40;102739.00;;;0.22;81.86
67931;BME280;63902;52.000;5.954;2023-02-28T01:26:41;102743.41;;;0.25;81.69
67931;BME280;63902;52.000;5.954;2023-02-28T01:27:41;102749.53;;;0.26;81.75
67931;BME280;63902;52.000;5.954;2023-02-28T01:28:42;102733.81;;;0.24;81.83
67931;BME280;63902;52.000;5.954;2023-02-28T01:29:43;102728.31;;;0.16;81.59
67931;BME280;63902;52.000;5.954;2023-02-28T01:30:47;102745.13;;;0.25;81.96
67931;BME280;63902;52.000;5.954;2023-02-28T01:31:48;102735.34;;;0.17;81.77
67931;BME280;63902;52.000;5.954;2023-02-28T01:32:48;102741.59;;;0.22;81.80
67931;BME280;63902;52.000;5.954;2023-02-28T01:33:49;102738.06;;;0.22;82.06
67931;BME280;63902;52.000;5.954;2023-02-28T01:34:49;102740.69;;;0.22;81.86
67931;BME280;63902;52.000;5.954;2023-02-28T01:35:57;102740.69;;;0.22;81.84
67931;BME280;63902;52.000;5.954;2023-02-28T01:36:57;102745.91;;;0.22;82.26
67931;BME280;63902;52.000;5.954;2023-02-28T01:37:59;102737.19;;;0.21;81.79
67931;BME280;63902;52.000;5.954;2023-02-28T01:39:00;102732.84;;;0.22;82.35
67931;BME280;63902;52.000;5.954;2023-02-28T01:40:00;102725.72;;;0.16;82.24
67931;BME280;63902;52.000;5.954;2023-02-28T01:41:01;102733.72;;;0.21;82.01
67931;BME280;63902;52.000;5.954;2023-02-28T01:42:01;102739.78;;;0.20;82.22
67931;BME280;63902;52.000;5.954;2023-02-28T01:43:02;102745.88;;;0.20;82.45
67931;BME280;63902;52.000;5.954;2023-02-28T01:44:04;102737.16;;;0.20;82.23
67931;BME280;63902;52.000;5.954;2023-02-28T01:45:18;102734.56;;;0.20;82.49
67931;BME280;63902;52.000;5.954;2023-02-28T01:46:21;102736.16;;;0.16;82.50
67931;BME280;63902;52.000;5.954;2023-02-28T01:47:22;102737.97;;;0.19;82.17
67931;BME280;63902;52.000;5.954;2023-02-28T01:48:27;102739.81;;;0.21;82.60
67931;BME280;63902;52.000;5.954;2023-02-28T01:49:29;102731.88;;;0.18;82.51
67931;BME280;63902;52.000;5.954;2023-02-28T01:50:32;102734.59;;;0.21;82.44
67931;BME280;63902;52.000;5.954;2023-02-28T01:51:38;102727.53;;;0.19;82.29
67931;BME280;63902;52.000;5.954;2023-02-28T01:52:39;102738.88;;;0.19;82.48
67931;BME280;63902;52.000;5.954;2023-02-28T01:53:44;102726.66;;;0.18;82.50
67931;BME280;63902;52.000;5.954;2023-02-28T01:54:48;102728.41;;;0.18;82.46
67931;BME280;63902;52.000;5.954;2023-02-28T01:55:52;102704.56;;;0.07;82.56
67931;BME280;63902;52.000;5.954;2023-02-28T01:56:57;102724.03;;;0.17;82.35
67931;BME280;63902;52.000;5.954;2023-02-28T01:58:02;102733.53;;;0.16;82.43
67931;BME280;63902;52.000;5.954;2023-02-28T01:59:04;102733.66;;;0.19;83.01
67931;BME280;63902;52.000;5.954;2023-02-28T02:00:08;102735.44;;;0.20;82.46
67931;BME280;63902;52.000;5.954;2023-02-28T02:01:08;102731.09;;;0.21;82.78
67931;BME280;63902;52.000;5.954;2023-02-28T02:02:09;102726.75;;;0.21;82.60
67931;BME280;63902;52.000;5.954;2023-02-28T02:03:13;102724.94;;;0.19;82.50
67931;BME280;63902;52.000;5.954;2023-02-28T02:04:15;102728.50;;;0.21;82.97
67931;BME280;63902;52.000;5.954;2023-02-28T02:05:17;102731.97;;;0.21;82.46
67931;BME280;63902;52.000;5.954;2023-02-28T02:06:18;102728.44;;;0.19;82.77
67931;BME280;63902;52.000;5.954;2023-02-28T02:07:19;102728.50;;;0.21;82.83
67931;BME280;63902;52.000;5.954;2023-02-28T02:08:22;102722.28;;;0.17;82.78
67931;BME280;63902;52.000;5.954;2023-02-28T02:09:24;102731.09;;;0.21;82.60
67931;BME280;63902;52.000;5.954;2023-02-28T02:10:29;102729.34;;;0.20;82.89
67931;BME280;63902;52.000;5.954;2023-02-28T02:11:31;102723.22;;;0.19;83.00
67931;BME280;63902;52.000;5.954;2023-02-28T02:12:42;102717.78;;;0.13;82.60
67931;BME280;63902;52.000;5.954;2023-02-28T02:14:14;102724.91;;;0.17;83.01
67931;BME280;63902;52.000;5.954;2023-02-28T02:15:25;102723.09;;;0.16;82.70
67931;BME280;63902;52.000;5.954;2023-02-28T02:16:36;102726.66;;;0.18;82.77
67931;BME280;63902;52.000;5.954;2023-02-28T02:17:40;102732.75;;;0.19;82.91
67931;BME280;63902;52.000;5.954;2023-02-28T02:18:46;102732.72;;;0.17;82.85
67931;BME280;63902;52.000;5.954;2023-02-28T02:23:22;102736.22;;;0.18;82.92
67931;BME280;63902;52.000;5.954;2023-02-28T02:24:43;102726.66;;;0.18;83.05
67931;BME280;63902;52.000;5.954;2023-02-28T02:25:50;102729.38;;;0.21;83.14
67931;BME280;63902;52.000;5.954;2023-02-28T02:27:17;102727.72;;;0.25;82.84
67931;BME280;63902;52.000;5.954;2023-02-28T02:29:04;102739.19;;;0.29;82.75
67931;BME280;63902;52.000;5.954;2023-02-28T02:30:28;102727.88;;;0.28;82.75
67931;BME280;63902;52.000;5.954;2023-02-28T02:32:02;102721.72;;;0.28;82.81
67931;BME280;63902;52.000;5.954;2023-02-28T02:33:28;102726.16;;;0.30;82.61
67931;BME280;63902;52.000;5.954;2023-02-28T02:34:43;102731.38;;;0.30;82.33
67931;BME280;63902;52.000;5.954;2023-02-28T02:35:51;102727.03;;;0.31;82.28
67931;BME280;63902;52.000;5.954;2023-02-28T02:36:59;102726.25;;;0.33;82.93
67931;BME280;63902;52.000;5.954;2023-02-28T02:38:08;102719.38;;;0.35;82.16
67931;BME280;63902;52.000;5.954;2023-02-28T02:39:14;102721.94;;;0.34;82.29
67931;BME280;63902;52.000;5.954;2023-02-28T02:40:19;102722.06;;;0.38;82.69
67931;BME280;63902;52.000;5.954;2023-02-28T02:41:24;102725.63;;;0.40;82.07
67931;BME280;63902;52.000;5.954;2023-02-28T02:42:31;102725.66;;;0.42;81.79
67931;BME280;63902;52.000;5.954;2023-02-28T02:43:40;102723.03;;;0.42;81.77
67931;BME280;63902;52.000;5.954;2023-02-28T02:44:47;102730.00;;;0.41;81.47
67931;BME280;63902;52.000;5.954;2023-02-28T02:45:52;102730.00;;;0.41;81.59
67931;BME280;63902;52.000;5.954;2023-02-28T02:46:59;102733.47;;;0.40;81.49
67931;BME280;63902;52.000;5.954;2023-02-28T02:48:06;102724.69;;;0.38;81.54
67931;BME280;63902;52.000;5.954;2023-02-28T02:49:11;102727.16;;;0.34;81.78
67931;BME280;63902;52.000;5.954;2023-02-28T02:50:21;102740.31;;;0.37;81.89
67931;BME280;63902;52.000;5.954;2023-02-28T02:51:24;102732.38;;;0.34;81.73
67931;BME280;63902;52.000;5.954;2023-02-28T02:52:31;102727.16;;;0.34;82.03
67931;BME280;63902;52.000;5.954;2023-02-28T02:53:38;102729.03;;;0.38;81.70
67931;BME280;63902;52.000;5.954;2023-02-28T02:54:43;102728.25;;;0.40;82.22
67931;BME280;63902;52.000;5.954;2023-02-28T02:55:46;102725.66;;;0.42;81.65
67931;BME280;63902;52.000;5.954;2023-02-28T02:56:49;102720.44;;;0.42;81.76
67931;BME280;63902;52.000;5.954;2023-02-28T02:57:53;102719.47;;;0.38;81.59
67931;BME280;63902;52.000;5.954;2023-02-28T02:58:57;102728.25;;;0.40;81.59
67931;BME280;63902;52.000;5.954;2023-02-28T03:00:02;102728.19;;;0.39;81.75
67931;BME280;63902;52.000;5.954;2023-02-28T03:01:04;102729.97;;;0.40;82.06
67931;BME280;63902;52.000;5.954;2023-02-28T03:02:08;102732.59;;;0.41;81.87
67931;BME280;63902;52.000;5.954;2023-02-28T03:03:10;102725.53;;;0.37;81.67
67931;BME280;63902;52.000;5.954;2023-02-28T03:04:16;102733.47;;;0.40;81.78
67931;BME280;63902;52.000;5.954;2023-02-28T03:05:23;102721.94;;;0.34;81.58
67931;BME280;63902;52.000;5.954;2023-02-28T03:06:26;102734.34;;;0.41;81.51
67931;BME280;63902;52.000;5.954;2023-02-28T03:07:26;102735.22;;;0.41;81.75
67931;BME280;63902;52.000;5.954;2023-02-28T03:08:28;102729.97;;;0.40;81.49
67931;BME280;63902;52.000;5.954;2023-02-28T03:09:33;102744.78;;;0.41;81.78
67931;BME280;63902;52.000;5.954;2023-02-28T03:10:36;102743.03;;;0.40;81.94
67931;BME280;63902;52.000;5.954;2023-02-28T03:11:38;102747.38;;;0.41;81.56
67931;BME280;63902;52.000;5.954;2023-02-28T03:12:44;102740.41;;;0.40;81.61
67931;BME280;63902;52.000;5.954;2023-02-28T03:14:10;102734.34;;;0.41;81.64
67931;BME280;63902;52.000;5.954;2023-02-28T03:15:18;102739.56;;;0.41;81.69
67931;BME280;63902;52.000;5.954;2023-02-28T03:16:32;102740.50;;;0.43;81.58
67931;BME280;63902;52.000;5.954;2023-02-28T03:17:47;102742.22;;;0.42;81.67
67931;BME280;63902;52.000;5.954;2023-02-28T03:18:56;102745.66;;;0.41;81.69
67931;BME280;63902;52.000;5.954;2023-02-28T03:20:10;102743.91;;;0.40;81.30
67931;BME280;63902;52.000;5.954;2023-02-28T03:21:18;102736.06;;;0.40;81.52
67931;BME280;63902;52.000;5.954;2023-02-28T03:22:39;102740.34;;;0.38;81.38
67931;BME280;63902;52.000;5.954;2023-02-28T03:23:45;102738.59;;;0.37;81.40
67931;BME280;63902;52.000;5.954;2023-02-28T03:24:50;102739.47;;;0.38;81.76
67931;BME280;63902;52.000;5.954;2023-02-28T03:25:59;102748.16;;;0.37;81.29
67931;BME280;63902;52.000;5.954;2023-02-28T03:27:07;102735.00;;;0.34;81.51
67931;BME280;63902;52.000;5.954;2023-02-28T03:28:12;102741.19;;;0.37;81.72
67931;BME280;63902;52.000;5.954;2023-02-28T03:29:20;102741.13;;;0.36;81.71
67931;BME280;63902;52.000;5.954;2023-02-28T03:30:27;102732.22;;;0.29;81.70
67931;BME280;63902;52.000;5.954;2023-02-28T03:31:31;102737.63;;;0.34;81.26
67931;BME280;63902;52.000;5.954;2023-02-28T03:32:36;102745.44;;;0.34;81.39
67931;BME280;63902;52.000;5.954;2023-02-28T03:33:42;102735.81;;;0.33;81.69
67931;BME280;63902;52.000;5.954;2023-02-28T03:34:49;102743.72;;;0.34;81.31
67931;BME280;63902;52.000;5.954;2023-02-28T03:35:57;102736.75;;;0.35;81.48
67931;BME280;63902;52.000;5.954;2023-02-28T03:37:05;102730.50;;;0.30;81.75
67931;BME280;63902;52.000;5.954;2023-02-28T03:38:12;102739.28;;;0.32;81.54
67931;BME280;63902;52.000;5.954;2023-02-28T03:39:17;102747.19;;;0.35;81.16
67931;BME280;63902;52.000;5.954;2023-02-28T03:40:23;102739.38;;;0.35;81.45
67931;BME280;63902;52.000;5.954;2023-02-28T03:41:29;102742.88;;;0.35;81.15
67931;BME280;63902;52.000;5.954;2023-02-28T03:42:33;102738.44;;;0.33;81.53
67931;BME280;63902;52.000;5.954;2023-02-28T03:43:39;102742.84;;;0.34;81.22
67931;BME280;63902;52.000;5.954;2023-02-28T03:44:43;102744.53;;;0.33;81.18
67931;BME280;63902;52.000;5.954;2023-02-28T03:45:46;102739.28;;;0.32;81.29
67931;BME280;63902;52.000;5.954;2023-02-28T03:46:54;102735.81;;;0.33;81.52
67931;BME280;63902;52.000;5.954;2023-02-28T03:48:00;102746.25;;;0.33;81.22
67931;BME280;63902;52.000;5.954;2023-02-28T03:49:07;102742.78;;;0.32;81.55
67931;BME280;63902;52.000;5.954;2023-02-28T03:50:14;102745.38;;;0.32;81.18
67931;BME280;63902;52.000;5.954;2023-02-28T03:51:20;102719.88;;;0.24;81.46
67931;BME280;63902;52.000;5.954;2023-02-28T03:52:27;102739.22;;;0.30;81.69
67931;BME280;63902;52.000;5.954;2023-02-28T03:53:32;102745.38;;;0.32;81.73
67931;BME280;63902;52.000;5.954;2023-02-28T03:54:35;102743.63;;;0.31;81.29
67931;BME280;63902;52.000;5.954;2023-02-28T03:55:42;102735.72;;;0.30;81.57
67931;BME280;63902;52.000;5.954;2023-02-28T03:56:46;102727.72;;;0.25;81.35
67931;BME280;63902;52.000;5.954;2023-02-28T03:57:58;102739.28;;;0.32;81.47
67931;BME280;63902;52.000;5.954;2023-02-28T03:59:06;102727.03;;;0.31;81.46
67931;BME280;63902;52.000;5.954;2023-02-28T04:00:11;102734.00;;;0.30;81.33
67931;BME280;63902;52.000;5.954;2023-02-28T04:01:18;102707.56;;;0.19;81.37
67931;BME280;63902;52.000;5.954;2023-02-28T04:02:20;102719.88;;;0.24;81.25
67931;BME280;63902;52.000;5.954;2023-02-28T04:03:20;102721.63;;;0.25;81.40
67931;BME280;63902;52.000;5.954;2023-02-28T04:04:21;102730.41;;;0.27;81.30
67931;BME280;63902;52.000;5.954;2023-02-28T04:05:22;102724.31;;;0.26;81.39
67931;BME280;63902;52.000;5.954;2023-02-28T04:06:23;102728.66;;;0.26;81.24
67931;BME280;63902;52.000;5.954;2023-02-28T04:07:28;102720.72;;;0.22;81.16
67931;BME280;63902;52.000;5.954;2023-02-28T04:08:29;102724.22;;;0.23;81.24
67931;BME280;63902;52.000;5.954;2023-02-28T04:09:30;102719.00;;;0.23;81.37
67931;BME280;63902;52.000;5.954;2023-02-28T04:10:30;102722.41;;;0.22;81.43
67931;BME280;63902;52.000;5.954;2023-02-28T04:11:33;102718.00;;;0.19;81.26
67931;BME280;63902;52.000;5.954;2023-02-28T04:12:34;102722.47;;;0.24;81.60
67931;BME280;63902;52.000;5.954;2023-02-28T04:13:34;102723.34;;;0.22;81.32
67931;BME280;63902;52.000;5.954;2023-02-28T04:14:35;102722.41;;;0.22;81.22
67931;BME280;63902;52.000;5.954;2023-02-28T04:15:35;102722.41;;;0.22;81.16
67931;BME280;63902;52.000;5.954;2023-02-28T04:16:38;102727.63;;;0.22;81.16
67931;BME280;63902;52.000;5.954;2023-02-28T04:17:39;102723.19;;;0.18;81.38
67931;BME280;63902;52.000;5.954;2023-02-28T04:18:40;102727.53;;;0.19;81.30
67931;BME280;63902;52.000;5.954;2023-02-28T04:19:40;102728.44;;;0.19;81.65
67931;BME280;63902;52.000;5.954;2023-02-28T04:20:41;102725.78;;;0.18;81.34
67931;BME280;63902;52.000;5.954;2023-02-28T04:21:43;102733.63;;;0.18;81.63
67931;BME280;63902;52.000;5.954;2023-02-28T04:22:45;102730.13;;;0.17;81.50
67931;BME280;63902;52.000;5.954;2023-02-28T04:23:45;102717.66;;;0.09;81.60
67931;BME280;63902;52.000;5.954;2023-02-28T04:24:46;102727.41;;;0.14;81.23
67931;BME280;63902;52.000;5.954;2023-02-28T04:25:46;102704.41;;;0.03;81.54
67931;BME280;63902;52.000;5.954;2023-02-28T04:26:48;102724.03;;;0.17;81.32
67931;BME280;63902;52.000;5.954;2023-02-28T04:27:49;102729.25;;;0.17;81.30
67931;BME280;63902;52.000;5.954;2023-02-28T04:28:49;102728.31;;;0.16;81.18
67931;BME280;63902;52.000;5.954;2023-02-28T04:29:50;102725.72;;;0.16;81.33
67931;BME280;63902;52.000;5.954;2023-02-28T04:30:54;102721.28;;;0.14;81.45
67931;BME280;63902;52.000;5.954;2023-02-28T04:31:56;102715.94;;;0.09;81.45
67931;BME280;63902;52.000;5.954;2023-02-28T04:32:56;102726.50;;;0.14;81.44
67931;BME280;63902;52.000;5.954;2023-02-28T04:33:57;102721.25;;;0.12;81.15
67931;BME280;63902;52.000;5.954;2023-02-28T04:34:57;102715.94;;;0.09;81.17
67931;BME280;63902;52.000;5.954;2023-02-28T04:35:59;102721.25;;;0.12;81.32
67931;BME280;63902;52.000;5.954;2023-02-28T04:37:00;102726.47;;;0.12;81.50
67931;BME280;63902;52.000;5.954;2023-02-28T04:38:02;102718.47;;;0.08;81.12
67931;BME280;63902;52.000;5.954;2023-02-28T04:39:03;102718.56;;;0.11;81.18
67931;BME280;63902;52.000;5.954;2023-02-28T04:40:04;102718.66;;;0.12;81.47
67931;BME280;63902;52.000;5.954;2023-02-28T04:41:05;102717.69;;;0.10;81.50
67931;BME280;63902;52.000;5.954;2023-02-28T04:42:06;102722.91;;;0.10;81.45
67931;BME280;63902;52.000;5.954;2023-02-28T04:43:06;102721.19;;;0.11;81.51
67931;BME280;63902;52.000;5.954;2023-02-28T04:44:07;102718.34;;;0.03;81.42
67931;BME280;63902;52.000;5.954;2023-02-28T04:45:09;102721.16;;;0.09;81.11
67931;BME280;63902;52.000;5.954;2023-02-28T04:46:09;102726.38;;;0.09;81.15
67931;BME280;63902;52.000;5.954;2023-02-28T04:47:10;102717.59;;;0.07;81.16
67931;BME280;63902;52.000;5.954;2023-02-28T04:48:10;102721.09;;;0.08;81.30
67931;BME280;63902;52.000;5.954;2023-02-28T04:49:11;102710.47;;;0.02;81.46
67931;BME280;63902;52.000;5.954;2023-02-28T04:50:11;102724.47;;;0.05;81.50
67931;BME280;63902;52.000;5.954;2023-02-28T04:51:14;102724.47;;;0.05;81.08
67931;BME280;63902;52.000;5.954;2023-02-28T04:52:14;102715.78;;;0.05;81.49
67931;BME280;63902;52.000;5.954;2023-02-28T04:53:17;102720.97;;;0.03;81.17
67931;BME280;63902;52.000;5.954;2023-02-28T04:54:17;102720.19;;;0.06;81.63
67931;BME280;63902;52.000;5.954;2023-02-28T04:55:17;102713.16;;;0.05;81.67
67931;BME280;63902;52.000;5.954;2023-02-28T04:56:18;102710.53;;;0.03;81.39
67931;BME280;63902;52.000;5.954;2023-02-28T04:57:18;102720.97;;;0.03;81.65
67931;BME280;63902;52.000;5.954;2023-02-28T04:58:19;102720.88;;;0.00;81.39
67931;BME280;63902;52.000;5.954;2023-02-28T04:59:19;102724.38;;;0.02;81.26
67931;BME280;63902;52.000;5.954;2023-02-28T05:00:20;102726.19;;;0.03;81.61
67931;BME280;63902;52.000;5.954;2023-02-28T05:01:22;102731.41;;;0.03;81.25
67931;BME280;63902;52.000;5.954;2023-02-28T05:02:23;102735.69;;;0.03;81.20
67931;BME280;63902;52.000;5.954;2023-02-28T05:03:24;102723.34;;;-0.03;81.54
67931;BME280;63902;52.000;5.954;2023-02-28T05:04:24;102727.00;;;0.02;81.62
67931;BME280;63902;52.000;5.954;2023-02-28T05:05:25;102722.53;;;-0.02;81.16
67931;BME280;63902;52.000;5.954;2023-02-28T05:06:27;102721.69;;;-0.01;81.61
67931;BME280;63902;52.000;5.954;2023-02-28T05:07:27;102710.19;;;-0.06;81.40
67931;BME280;63902;52.000;5.954;2023-02-28T05:08:29;102722.63;;;0.01;81.55
67931;BME280;63902;52.000;5.954;2023-02-28T05:09:29;102718.25;;;0.00;81.71
67931;BME280;63902;52.000;5.954;2023-02-28T05:10:30;102713.91;;;0.01;81.60
67931;BME280;63902;52.000;5.954;2023-02-28T05:11:32;102727.84;;;0.01;81.21
67931;BME280;63902;52.000;5.954;2023-02-28T05:12:33;102715.66;;;0.00;81.60
67931;BME280;63902;52.000;5.954;2023-02-28T05:13:34;102719.94;;;-0.01;81.43
67931;BME280;63902;52.000;5.954;2023-02-28T05:14:34;102720.88;;;0.00;81.24
67931;BME280;63902;52.000;5.954;2023-02-28T05:15:34;102725.16;;;-0.01;81.66
67931;BME280;63902;52.000;5.954;2023-02-28T05:16:35;102724.28;;;-0.01;81.62
67931;BME280;63902;52.000;5.954;2023-02-28T05:17:35;102710.97;;;-0.09;81.44
67931;BME280;63902;52.000;5.954;2023-02-28T05:18:36;102723.47;;;0.00;81.52
67931;BME280;63902;52.000;5.954;2023-02-28T05:19:36;102718.19;;;-0.02;81.68
67931;BME280;63902;52.000;5.954;2023-02-28T05:20:37;102726.03;;;-0.02;81.58
67931;BME280;63902;52.000;5.954;2023-02-28T05:21:39;102719.03;;;-0.03;81.54
67931;BME280;63902;52.000;5.954;2023-02-28T05:22:41;102722.53;;;-0.02;81.44
67931;BME280;63902;52.000;5.954;2023-02-28T05:23:42;102718.19;;;-0.02;81.41
67931;BME280;63902;52.000;5.954;2023-02-28T05:24:43;102722.53;;;-0.02;81.88
67931;BME280;63902;52.000;5.954;2023-02-28T05:25:43;102718.13;;;-0.03;81.85
67931;BME280;63902;52.000;5.954;2023-02-28T05:26:44;102722.53;;;-0.02;81.46
67931;BME280;63902;52.000;5.954;2023-02-28T05:27:44;102708.97;;;-0.17;81.86
67931;BME280;63902;52.000;5.954;2023-02-28T05:28:45;102731.16;;;-0.03;81.47
67931;BME280;63902;52.000;5.954;2023-02-28T05:29:45;102727.66;;;-0.05;81.56
67931;BME280;63902;52.000;5.954;2023-02-28T05:30:46;102728.53;;;-0.05;81.76
67931;BME280;63902;52.000;5.954;2023-02-28T05:31:47;102732.91;;;-0.04;81.76
67931;BME280;63902;52.000;5.954;2023-02-28T05:32:50;102725.94;;;-0.03;81.64
67931;BME280;63902;52.000;5.954;2023-02-28T05:33:51;102728.56;;;-0.03;81.98
67931;BME280;63902;52.000;5.954;2023-02-28T05:34:51;102731.06;;;-0.06;81.98
67931;BME280;63902;52.000;5.954;2023-02-28T05:35:52;102737.22;;;-0.04;81.83
67931;BME280;63902;52.000;5.954;2023-02-28T05:36:52;102733.78;;;-0.03;82.09
67931;BME280;63902;52.000;5.954;2023-02-28T05:37:53;102734.63;;;-0.04;81.89